Akogare — JPDL — position and weather

sailwx.info

Track history (hours):
 
Tides and Currents Weather Stations Pressure Air Temp Water Temp Dewpoint Dewpoint Depression Visibility Wind Speed Wind Dir Waves Ship Positions

Akogare (Japan)

Ship's website: http://www.akogare.or.jp/eng/top.html

Last reported at 2018-Apr-25 18:29 UTC. Time now 2018-Apr-26 19:13 UTC.
Position N 33°46' E 135°08'.

Length 52 m; draft 4.5 m.

Type: Sailing vessel. MMSI: 431005001.

Date/timePositionNaut miles runAvg speedWind from/ knotsBaromVisibWave heightAir tempDewpointWater temp
2018-Apr-25 18:29N 33°46' E 135°08'4 8.0
2018-Apr-25 17:59N 33°49' E 135°05'4 7.8
2018-Apr-25 17:30N 33°53' E 135°03'4 7.5
2018-Apr-25 17:01N 33°56' E 135°01'4 7.6
2018-Apr-25 16:30N 33°60' E 135°01'4 7.7
2018-Apr-25 16:00N 34°04' E 135°00'4 7.5
2018-Apr-25 15:30N 34°07' E 134°60'4 7.6
2018-Apr-25 15:00N 34°11' E 134°59'4 8.7
2018-Apr-25 14:30N 34°15' E 134°58'4 8.9
2018-Apr-25 14:00N 34°20' E 134°59'4 8.4
2018-Apr-25 13:30N 34°24' E 134°59'4 7.9
2018-Apr-25 13:00N 34°28' E 135°00'4 7.7
2018-Apr-25 12:31N 34°32' E 135°01'4 7.5
2018-Apr-25 12:00N 34°35' E 135°03'4 7.1
2018-Apr-25 11:31N 34°37' E 134°59'3 6.6
2018-Apr-25 11:01N 34°36' E 134°55'3 6.4
2018-Apr-25 10:30N 34°34' E 134°52'3 6.2
2018-Apr-25 10:01N 34°33' E 134°48'3 6.3
2018-Apr-25 09:30N 34°32' E 134°45'3 6.8
2018-Apr-25 09:00N 34°30' E 134°41'3 6.7
2018-Apr-25 08:30N 34°29' E 134°37'3 6.7
2018-Apr-25 08:00N 34°28' E 134°33'4 6.8
2018-Apr-25 07:28N 34°27' E 134°29'3 7.2
2018-Apr-25 07:00N 34°25' E 134°25'4 7.5
2018-Apr-25 06:27N 34°24' E 134°21'83 7.2
2018-Apr-24 18:49N 34°05' E 132°42'3 7.6
2018-Apr-24 18:29N 34°03' E 132°40'4 7.8
2018-Apr-24 18:00N 34°01' E 132°37'11 6.9
2018-Apr-24 16:28N 33°54' E 132°28'19 6.4
2018-Apr-24 13:26N 33°46' E 132°06'12 7.7
2018-Apr-24 11:52N 33°45' E 131°52'3 8.3
2018-Apr-24 11:31N 33°44' E 131°48'4 8.3
2018-Apr-24 11:01N 33°45' E 131°43'4 8.4
2018-Apr-24 10:30N 33°46' E 131°39'4 8.1
2018-Apr-24 10:00N 33°47' E 131°34'4 8.0
2018-Apr-24 09:30N 33°48' E 131°29'4 8.0
2018-Apr-24 09:00N 33°49' E 131°24'4 7.9
2018-Apr-24 08:31N 33°50' E 131°20'4 7.6
2018-Apr-24 08:00N 33°50' E 131°15'4 7.3
2018-Apr-24 07:30N 33°52' E 131°11'4 7.3
2018-Apr-24 07:00N 33°54' E 131°08'4 7.3
2018-Apr-24 06:31N 33°56' E 131°04'4 7.2
2018-Apr-24 06:01N 33°58' E 131°01'3 6.9
2018-Apr-24 05:30N 33°57' E 130°57'4 7.1
2018-Apr-24 05:00N 33°54' E 130°54'4 7.4
2018-Apr-24 04:30N 33°57' E 130°52'3 5.6
2018-Apr-24 04:00N 34°00' E 130°51'3 5.8
2018-Apr-24 03:30N 34°02' E 130°49'2 4.7
2018-Apr-24 03:01N 34°03' E 130°46'2 3.5
2018-Apr-24 02:30N 34°03' E 130°44'2 3.7
2018-Apr-24 02:01N 34°02' E 130°42'2 3.8
2018-Apr-24 01:30N 34°01' E 130°40'4 7.1
2018-Apr-24 01:01N 33°60' E 130°36'4 7.4
2018-Apr-24 00:31N 33°59' E 130°32'3 6.1
2018-Apr-24 00:00N 33°58' E 130°29'3 6.8
2018-Apr-23 23:30N 33°57' E 130°25'3 6.7
2018-Apr-23 23:00N 33°55' E 130°21'3 6.6
2018-Apr-23 22:30N 33°53' E 130°18'3 6.4
2018-Apr-23 21:59N 33°51' E 130°15'3 6.5
2018-Apr-23 21:29N 33°49' E 130°12'3 6.6
2018-Apr-23 21:00N 33°47' E 130°09'3 6.7
2018-Apr-23 20:30N 33°45' E 130°05'3 6.6
2018-Apr-23 20:01N 33°44' E 130°02'3 6.7
2018-Apr-23 19:31N 33°42' E 129°58'  
2018-Apr-16 18:45N 33°41' E 129°55'3 7.0
2018-Apr-16 18:20N 33°42' E 129°59'2 6.9
2018-Apr-16 18:00N 33°44' E 130°01'3 6.8
2018-Apr-16 17:30N 33°45' E 130°04'3 6.7
2018-Apr-16 17:00N 33°47' E 130°08'3 6.5
2018-Apr-16 16:30N 33°49' E 130°11'3 6.4
2018-Apr-16 16:00N 33°51' E 130°14'3 6.6
2018-Apr-16 15:30N 33°53' E 130°18'3 6.5
2018-Apr-16 15:00N 33°54' E 130°21'3 6.2
2018-Apr-16 14:30N 33°56' E 130°24'3 6.5
2018-Apr-16 14:00N 33°58' E 130°27'3 6.9
2018-Apr-16 13:30N 33°59' E 130°31'4 7.0
2018-Apr-16 12:59N 34°01' E 130°35'3 7.2
2018-Apr-16 12:30N 34°02' E 130°39'4 7.3
2018-Apr-16 12:00N 34°03' E 130°43'3 6.7
2018-Apr-16 11:30N 34°03' E 130°47'3 6.6
2018-Apr-16 11:01N 34°02' E 130°51'3 6.4
2018-Apr-16 10:30N 33°59' E 130°53'3 6.0
2018-Apr-16 10:00N 33°56' E 130°53'3 5.1
2018-Apr-16 09:30N 33°55' E 130°56'2 3.6
2018-Apr-16 08:58N 33°57' E 130°57'0 0.0
2018-Apr-16 08:28N 33°57' E 130°57'0 0.0
2018-Apr-16 07:58N 33°57' E 130°57'0 0.0
2018-Apr-16 07:28N 33°57' E 130°57'0 0.0
2018-Apr-16 06:58N 33°57' E 130°57'0 0.0
2018-Apr-16 06:28N 33°57' E 130°57'0 0.0
2018-Apr-16 05:58N 33°57' E 130°57'0 0.0
2018-Apr-16 05:28N 33°57' E 130°57'0 0.0
2018-Apr-16 04:58N 33°57' E 130°57'0 0.0
2018-Apr-16 04:28N 33°57' E 130°57'0 0.0
2018-Apr-16 03:58N 33°57' E 130°57'0 0.0
2018-Apr-16 03:28N 33°57' E 130°57'0 0.0
2018-Apr-16 02:58N 33°57' E 130°57'0 0.0
2018-Apr-16 02:28N 33°57' E 130°57'0 0.0
2018-Apr-16 01:58N 33°57' E 130°57'0 0.0
2018-Apr-16 01:28N 33°57' E 130°57'0 0.0
2018-Apr-16 00:58N 33°57' E 130°57'0 0.0
2018-Apr-16 00:28N 33°57' E 130°57'0 0.0
2018-Apr-15 23:58N 33°57' E 130°57'0 0.0
2018-Apr-15 23:28N 33°57' E 130°57'0 0.0
2018-Apr-15 22:58N 33°57' E 130°57'0 0.0
2018-Apr-15 22:28N 33°57' E 130°57'0 0.0
2018-Apr-15 21:58N 33°57' E 130°57'0 0.0
2018-Apr-15 21:28N 33°57' E 130°57'0 0.0
2018-Apr-15 20:58N 33°57' E 130°57'0 0.0
2018-Apr-15 20:28N 33°57' E 130°57'0 0.0
2018-Apr-15 19:58N 33°57' E 130°57'0 0.0
2018-Apr-15 19:28N 33°57' E 130°57'0 0.0
2018-Apr-15 18:58N 33°57' E 130°57'  
Track history (hours):
 
Tides and Currents Weather Stations Pressure Air Temp Water Temp Dewpoint Dewpoint Depression Visibility Wind Speed Wind Dir Waves Ship Positions

Akogare (Japan)

Ship's website: http://www.akogare.or.jp/eng/top.html

Last reported at 2018-Apr-25 18:29 UTC. Time now 2018-Apr-26 19:13 UTC.
Position N 33°46' E 135°08'.

Length 52 m; draft 4.5 m.

Type: Sailing vessel. MMSI: 431005001.

Date/timePositionNaut miles runAvg speedWind from/ knotsBaromVisibWave heightAir tempDewpointWater temp
2018-Apr-25 18:29N 33°46' E 135°08'4 8.0
2018-Apr-25 17:59N 33°49' E 135°05'4 7.8
2018-Apr-25 17:30N 33°53' E 135°03'4 7.5
2018-Apr-25 17:01N 33°56' E 135°01'4 7.6
2018-Apr-25 16:30N 33°60' E 135°01'4 7.7
2018-Apr-25 16:00N 34°04' E 135°00'4 7.5
2018-Apr-25 15:30N 34°07' E 134°60'4 7.6
2018-Apr-25 15:00N 34°11' E 134°59'4 8.7
2018-Apr-25 14:30N 34°15' E 134°58'4 8.9
2018-Apr-25 14:00N 34°20' E 134°59'4 8.4
2018-Apr-25 13:30N 34°24' E 134°59'4 7.9
2018-Apr-25 13:00N 34°28' E 135°00'4 7.7
2018-Apr-25 12:31N 34°32' E 135°01'4 7.5
2018-Apr-25 12:00N 34°35' E 135°03'4 7.1
2018-Apr-25 11:31N 34°37' E 134°59'3 6.6
2018-Apr-25 11:01N 34°36' E 134°55'3 6.4
2018-Apr-25 10:30N 34°34' E 134°52'3 6.2
2018-Apr-25 10:01N 34°33' E 134°48'3 6.3
2018-Apr-25 09:30N 34°32' E 134°45'3 6.8
2018-Apr-25 09:00N 34°30' E 134°41'3 6.7
2018-Apr-25 08:30N 34°29' E 134°37'3 6.7
2018-Apr-25 08:00N 34°28' E 134°33'4 6.8
2018-Apr-25 07:28N 34°27' E 134°29'3 7.2
2018-Apr-25 07:00N 34°25' E 134°25'4 7.5
2018-Apr-25 06:27N 34°24' E 134°21'83 7.2
2018-Apr-24 18:49N 34°05' E 132°42'3 7.6
2018-Apr-24 18:29N 34°03' E 132°40'4 7.8
2018-Apr-24 18:00N 34°01' E 132°37'11 6.9
2018-Apr-24 16:28N 33°54' E 132°28'19 6.4
2018-Apr-24 13:26N 33°46' E 132°06'12 7.7
2018-Apr-24 11:52N 33°45' E 131°52'3 8.3
2018-Apr-24 11:31N 33°44' E 131°48'4 8.3
2018-Apr-24 11:01N 33°45' E 131°43'4 8.4
2018-Apr-24 10:30N 33°46' E 131°39'4 8.1
2018-Apr-24 10:00N 33°47' E 131°34'4 8.0
2018-Apr-24 09:30N 33°48' E 131°29'4 8.0
2018-Apr-24 09:00N 33°49' E 131°24'4 7.9
2018-Apr-24 08:31N 33°50' E 131°20'4 7.6
2018-Apr-24 08:00N 33°50' E 131°15'4 7.3
2018-Apr-24 07:30N 33°52' E 131°11'4 7.3
2018-Apr-24 07:00N 33°54' E 131°08'4 7.3
2018-Apr-24 06:31N 33°56' E 131°04'4 7.2
2018-Apr-24 06:01N 33°58' E 131°01'3 6.9
2018-Apr-24 05:30N 33°57' E 130°57'4 7.1
2018-Apr-24 05:00N 33°54' E 130°54'4 7.4
2018-Apr-24 04:30N 33°57' E 130°52'3 5.6
2018-Apr-24 04:00N 34°00' E 130°51'3 5.8
2018-Apr-24 03:30N 34°02' E 130°49'2 4.7
2018-Apr-24 03:01N 34°03' E 130°46'2 3.5
2018-Apr-24 02:30N 34°03' E 130°44'2 3.7
2018-Apr-24 02:01N 34°02' E 130°42'2 3.8
2018-Apr-24 01:30N 34°01' E 130°40'4 7.1
2018-Apr-24 01:01N 33°60' E 130°36'4 7.4
2018-Apr-24 00:31N 33°59' E 130°32'3 6.1
2018-Apr-24 00:00N 33°58' E 130°29'3 6.8
2018-Apr-23 23:30N 33°57' E 130°25'3 6.7
2018-Apr-23 23:00N 33°55' E 130°21'3 6.6
2018-Apr-23 22:30N 33°53' E 130°18'3 6.4
2018-Apr-23 21:59N 33°51' E 130°15'3 6.5
2018-Apr-23 21:29N 33°49' E 130°12'3 6.6
2018-Apr-23 21:00N 33°47' E 130°09'3 6.7
2018-Apr-23 20:30N 33°45' E 130°05'3 6.6
2018-Apr-23 20:01N 33°44' E 130°02'3 6.7
2018-Apr-23 19:31N 33°42' E 129°58'  
2018-Apr-16 18:45N 33°41' E 129°55'3 7.0
2018-Apr-16 18:20N 33°42' E 129°59'2 6.9
2018-Apr-16 18:00N 33°44' E 130°01'3 6.8
2018-Apr-16 17:30N 33°45' E 130°04'3 6.7
2018-Apr-16 17:00N 33°47' E 130°08'3 6.5
2018-Apr-16 16:30N 33°49' E 130°11'3 6.4
2018-Apr-16 16:00N 33°51' E 130°14'3 6.6
2018-Apr-16 15:30N 33°53' E 130°18'3 6.5
2018-Apr-16 15:00N 33°54' E 130°21'3 6.2
2018-Apr-16 14:30N 33°56' E 130°24'3 6.5
2018-Apr-16 14:00N 33°58' E 130°27'3 6.9
2018-Apr-16 13:30N 33°59' E 130°31'4 7.0
2018-Apr-16 12:59N 34°01' E 130°35'3 7.2
2018-Apr-16 12:30N 34°02' E 130°39'4 7.3
2018-Apr-16 12:00N 34°03' E 130°43'3 6.7
2018-Apr-16 11:30N 34°03' E 130°47'3 6.6
2018-Apr-16 11:01N 34°02' E 130°51'3 6.4
2018-Apr-16 10:30N 33°59' E 130°53'3 6.0
2018-Apr-16 10:00N 33°56' E 130°53'3 5.1
2018-Apr-16 09:30N 33°55' E 130°56'2 3.6
2018-Apr-16 08:58N 33°57' E 130°57'0 0.0
2018-Apr-16 08:28N 33°57' E 130°57'0 0.0
2018-Apr-16 07:58N 33°57' E 130°57'0 0.0
2018-Apr-16 07:28N 33°57' E 130°57'0 0.0
2018-Apr-16 06:58N 33°57' E 130°57'0 0.0
2018-Apr-16 06:28N 33°57' E 130°57'0 0.0
2018-Apr-16 05:58N 33°57' E 130°57'0 0.0
2018-Apr-16 05:28N 33°57' E 130°57'0 0.0
2018-Apr-16 04:58N 33°57' E 130°57'0 0.0
2018-Apr-16 04:28N 33°57' E 130°57'0 0.0
2018-Apr-16 03:58N 33°57' E 130°57'0 0.0
2018-Apr-16 03:28N 33°57' E 130°57'0 0.0
2018-Apr-16 02:58N 33°57' E 130°57'0 0.0
2018-Apr-16 02:28N 33°57' E 130°57'0 0.0
2018-Apr-16 01:58N 33°57' E 130°57'0 0.0
2018-Apr-16 01:28N 33°57' E 130°57'0 0.0
2018-Apr-16 00:58N 33°57' E 130°57'0 0.0
2018-Apr-16 00:28N 33°57' E 130°57'0 0.0
2018-Apr-15 23:58N 33°57' E 130°57'0 0.0
2018-Apr-15 23:28N 33°57' E 130°57'0 0.0
2018-Apr-15 22:58N 33°57' E 130°57'0 0.0
2018-Apr-15 22:28N 33°57' E 130°57'0 0.0
2018-Apr-15 21:58N 33°57' E 130°57'0 0.0
2018-Apr-15 21:28N 33°57' E 130°57'0 0.0
2018-Apr-15 20:58N 33°57' E 130°57'0 0.0
2018-Apr-15 20:28N 33°57' E 130°57'0 0.0
2018-Apr-15 19:58N 33°57' E 130°57'0 0.0
2018-Apr-15 19:28N 33°57' E 130°57'0 0.0
2018-Apr-15 18:58N 33°57' E 130°57'  

Dump ship's entire track history